Time,TemperatureF,DewpointF,PressureIn,WindDirection,WindDirectionDegrees,WindSpeedMPH,WindSpeedGustMPH,Humidity,HourlyPrecipIn,Conditions,Clouds,dailyrainin,SoftwareType,DateUTC
2013-01-13 00:02:00,30.9,27.1,28.38,East,90,0.0,6.0,86,0.00,,,0.00,meteohub,2013-01-13 05:02:00,
2013-01-13 00:04:00,30.9,27.1,28.38,East,90,0.0,6.0,86,0.00,,,0.00,meteohub,2013-01-13 05:04:00,
2013-01-13 00:09:00,30.6,26.6,28.38,NW,315,0.0,4.0,85,0.00,,,0.00,meteohub,2013-01-13 05:09:00,
2013-01-13 00:14:00,30.4,26.4,28.39,NE,45,2.0,4.0,85,0.00,,,0.00,meteohub,2013-01-13 05:14:00,
2013-01-13 00:19:00,30.2,26.2,28.39,East,90,2.0,2.0,85,0.00,,,0.00,meteohub,2013-01-13 05:19:00,
2013-01-13 00:24:00,30.2,26.2,28.39,NW,315,0.0,2.0,85,0.00,,,0.00,meteohub,2013-01-13 05:24:00,
2013-01-13 00:30:00,30.4,26.4,28.39,West,270,1.0,2.0,85,0.00,,,0.00,meteohub,2013-01-13 05:30:00,
2013-01-13 00:35:00,30.4,26.4,28.39,West,270,0.0,2.0,85,0.00,,,0.00,meteohub,2013-01-13 05:35:00,
2013-01-13 00:40:00,30.4,26.4,28.39,East,90,1.0,2.0,85,0.00,,,0.00,meteohub,2013-01-13 05:40:00,
2013-01-13 00:45:00,30.4,26.4,28.39,NE,45,2.0,2.0,85,0.00,,,0.00,meteohub,2013-01-13 05:45:00,
2013-01-13 00:50:00,30.6,26.6,28.39,NE,45,2.0,2.0,85,0.00,,,0.00,meteohub,2013-01-13 05:50:00,
2013-01-13 00:55:00,30.4,26.4,28.39,West,270,2.0,2.0,85,0.00,,,0.00,meteohub,2013-01-13 05:55:00,
2013-01-13 01:02:00,30.4,26.4,28.40,SW,225,1.0,2.0,85,0.00,,,0.00,meteohub,2013-01-13 06:02:00,
2013-01-13 01:07:00,30.4,26.4,28.39,South,180,1.0,2.0,85,0.00,,,0.00,meteohub,2013-01-13 06:07:00,
2013-01-13 01:12:00,30.4,26.4,28.39,South,180,0.0,2.0,85,0.00,,,0.00,meteohub,2013-01-13 06:12:00,
2013-01-13 01:17:00,30.4,26.4,28.40,SW,225,0.0,2.0,85,0.00,,,0.00,meteohub,2013-01-13 06:17:00,
2013-01-13 01:22:00,30.6,26.6,28.40,West,270,2.0,2.0,85,0.00,,,0.00,meteohub,2013-01-13 06:22:00,
2013-01-13 01:27:00,30.6,26.6,28.40,SW,225,1.0,2.0,85,0.00,,,0.00,meteohub,2013-01-13 06:27:00,
2013-01-13 01:33:00,30.6,26.6,28.40,East,90,0.0,2.0,85,0.00,,,0.00,meteohub,2013-01-13 06:33:00,
2013-01-13 01:38:00,30.4,26.4,28.40,SE,135,1.0,2.0,85,0.00,,,0.00,meteohub,2013-01-13 06:38:00,
2013-01-13 01:43:00,30.4,26.4,28.40,SW,225,1.0,2.0,85,0.00,,,0.00,meteohub,2013-01-13 06:43:00,
2013-01-13 01:48:00,30.2,26.2,28.40,South,180,2.0,2.0,85,0.00,,,0.00,meteohub,2013-01-13 06:48:00,
2013-01-13 01:53:00,30.2,26.2,28.39,SE,135,2.0,2.0,85,0.00,,,0.00,meteohub,2013-01-13 06:53:00,
2013-01-13 01:58:00,30.2,26.2,28.40,South,180,2.0,3.0,85,0.00,,,0.00,meteohub,2013-01-13 06:58:00,
2013-01-13 02:03:00,30.4,26.4,28.40,South,180,2.0,3.0,85,0.00,,,0.00,meteohub,2013-01-13 07:03:00,
2013-01-13 02:08:00,30.6,26.6,28.40,SE,135,3.0,8.0,85,0.00,,,0.00,meteohub,2013-01-13 07:08:00,
2013-01-13 02:13:00,30.7,27.1,28.40,SE,135,2.0,8.0,86,0.00,,,0.00,meteohub,2013-01-13 07:13:00,
2013-01-13 02:18:00,30.9,27.1,28.39,SE,135,2.0,8.0,86,0.00,,,0.00,meteohub,2013-01-13 07:18:00,
2013-01-13 02:23:00,30.9,27.1,28.39,SE,135,0.0,4.0,86,0.00,,,0.00,meteohub,2013-01-13 07:23:00,
2013-01-13 02:28:00,30.9,27.1,28.38,SE,135,0.0,2.0,86,0.00,,,0.00,meteohub,2013-01-13 07:28:00,
2013-01-13 02:34:00,30.9,27.1,28.38,South,180,2.0,2.0,86,0.00,,,0.00,meteohub,2013-01-13 07:34:00,
2013-01-13 02:39:00,31.1,27.3,28.38,SE,135,2.0,2.0,86,0.00,,,0.00,meteohub,2013-01-13 07:39:00,
2013-01-13 02:44:00,31.6,27.9,28.37,West,270,0.0,4.0,86,0.00,,,0.00,meteohub,2013-01-13 07:44:00,
2013-01-13 02:49:00,31.6,27.9,28.37,West,270,2.0,4.0,86,0.00,,,0.00,meteohub,2013-01-13 07:49:00,
2013-01-13 02:54:00,31.6,27.9,28.36,NW,315,0.0,4.0,86,0.00,,,0.00,meteohub,2013-01-13 07:54:00,
2013-01-13 02:59:00,31.6,27.9,28.37,South,180,0.0,4.0,86,0.00,,,0.00,meteohub,2013-01-13 07:59:00,
2013-01-13 03:04:00,31.6,27.9,28.37,East,90,2.0,2.0,86,0.00,,,0.00,meteohub,2013-01-13 08:04:00,
2013-01-13 03:09:00,31.5,27.7,28.36,South,180,1.0,3.0,86,0.00,,,0.00,meteohub,2013-01-13 08:09:00,
2013-01-13 03:14:00,31.5,27.7,28.36,South,180,3.0,3.0,86,0.00,,,0.00,meteohub,2013-01-13 08:14:00,
2013-01-13 03:19:00,31.8,28.0,28.36,SE,135,2.0,3.0,86,0.00,,,0.00,meteohub,2013-01-13 08:19:00,
2013-01-13 03:24:00,31.8,28.0,28.36,East,90,3.0,3.0,86,0.00,,,0.00,meteohub,2013-01-13 08:24:00,
2013-01-13 03:29:00,31.8,28.0,28.35,NW,315,0.0,3.0,86,0.00,,,0.00,meteohub,2013-01-13 08:29:00,
2013-01-13 03:34:00,31.8,28.0,28.34,ESE,113,2.0,3.0,86,0.00,,,0.00,meteohub,2013-01-13 08:34:00,
2013-01-13 03:39:00,31.8,28.0,28.34,SE,135,3.0,3.0,86,0.00,,,0.00,meteohub,2013-01-13 08:39:00,
2013-01-13 03:45:00,32.5,28.8,28.34,South,180,3.0,4.0,86,0.00,,,0.00,meteohub,2013-01-13 08:45:00,
2013-01-13 03:50:00,32.5,28.8,28.34,East,90,3.0,5.0,86,0.00,,,0.00,meteohub,2013-01-13 08:50:00,
2013-01-13 03:55:00,32.5,28.8,28.35,WNW,293,2.0,5.0,86,0.00,,,0.00,meteohub,2013-01-13 08:55:00,
2013-01-13 04:00:00,32.2,28.4,28.35,SE,135,0.0,5.0,86,0.00,,,0.00,meteohub,2013-01-13 09:00:00,
2013-01-13 04:05:00,32.0,28.2,28.35,NW,315,2.0,3.0,86,0.00,,,0.00,meteohub,2013-01-13 09:05:00,
2013-01-13 04:10:00,31.6,27.9,28.35,North,0,2.0,2.0,86,0.00,,,0.00,meteohub,2013-01-13 09:10:00,
2013-01-13 04:15:00,31.1,27.3,28.36,West,270,0.0,2.0,86,0.00,,,0.00,meteohub,2013-01-13 09:15:00,
2013-01-13 04:20:00,30.9,27.1,28.37,North,0,2.0,2.0,86,0.00,,,0.00,meteohub,2013-01-13 09:20:00,
2013-01-13 04:25:00,30.9,27.1,28.37,North,0,1.0,2.0,86,0.00,,,0.00,meteohub,2013-01-13 09:25:00,
2013-01-13 04:30:00,31.1,27.3,28.37,SW,225,2.0,2.0,86,0.00,,,0.00,meteohub,2013-01-13 09:30:00,
2013-01-13 04:35:00,31.1,27.3,28.36,East,90,2.0,2.0,86,0.00,,,0.00,meteohub,2013-01-13 09:35:00,
2013-01-13 04:40:00,31.1,27.3,28.36,SW,225,1.0,2.0,86,0.00,,,0.00,meteohub,2013-01-13 09:40:00,
2013-01-13 04:45:00,30.9,27.1,28.36,NW,315,0.0,2.0,86,0.00,,,0.00,meteohub,2013-01-13 09:45:00,
2013-01-13 04:51:00,30.9,27.1,28.36,West,270,2.0,2.0,86,0.00,,,0.00,meteohub,2013-01-13 09:51:00,
2013-01-13 04:56:00,30.9,27.1,28.36,West,270,3.0,3.0,86,0.00,,,0.00,meteohub,2013-01-13 09:56:00,
2013-01-13 05:01:00,30.7,27.1,28.36,SW,225,2.0,3.0,86,0.00,,,0.00,meteohub,2013-01-13 10:01:00,
2013-01-13 05:06:00,30.6,27.0,28.36,South,180,2.0,3.0,86,0.00,,,0.00,meteohub,2013-01-13 10:06:00,
2013-01-13 05:11:00,30.6,27.0,28.35,SW,225,1.0,3.0,86,0.00,,,0.00,meteohub,2013-01-13 10:11:00,
2013-01-13 05:16:00,30.6,27.0,28.35,SE,135,2.0,3.0,86,0.00,,,0.00,meteohub,2013-01-13 10:16:00,
2013-01-13 05:21:00,30.6,27.0,28.35,SE,135,2.0,4.0,86,0.00,,,0.00,meteohub,2013-01-13 10:21:00,
2013-01-13 05:26:00,30.7,27.1,28.35,South,180,3.0,4.0,86,0.00,,,0.00,meteohub,2013-01-13 10:26:00,
2013-01-13 05:31:00,31.1,27.7,28.34,East,90,2.0,5.0,87,0.00,,,0.00,meteohub,2013-01-13 10:31:00,
2013-01-13 05:36:00,31.1,27.7,28.34,West,270,2.0,5.0,87,0.00,,,0.00,meteohub,2013-01-13 10:36:00,
2013-01-13 05:41:00,30.7,27.1,28.35,East,90,2.0,5.0,86,0.00,,,0.00,meteohub,2013-01-13 10:41:00,
2013-01-13 05:46:00,30.4,26.8,28.35,SW,225,0.0,2.0,86,0.00,,,0.00,meteohub,2013-01-13 10:46:00,
2013-01-13 05:52:00,30.4,26.8,28.35,NW,315,2.0,2.0,86,0.00,,,0.00,meteohub,2013-01-13 10:52:00,
2013-01-13 05:57:00,30.2,26.6,28.35,NE,45,0.0,2.0,86,0.00,,,0.00,meteohub,2013-01-13 10:57:00,
2013-01-13 06:02:00,30.2,26.6,28.35,West,270,0.0,2.0,86,0.00,,,0.00,meteohub,2013-01-13 11:02:00,
2013-01-13 06:07:00,30.0,26.6,28.35,West,270,0.0,2.0,87,0.00,,,0.00,meteohub,2013-01-13 11:07:00,
2013-01-13 06:12:00,30.0,26.6,28.35,West,270,1.0,2.0,87,0.00,,,0.00,meteohub,2013-01-13 11:12:00,
2013-01-13 06:17:00,29.8,26.4,28.35,North,0,1.0,2.0,87,0.00,,,0.00,meteohub,2013-01-13 11:17:00,
2013-01-13 06:22:00,29.8,26.4,28.35,South,180,0.0,2.0,87,0.00,,,0.00,meteohub,2013-01-13 11:22:00,
2013-01-13 06:27:00,29.8,26.4,28.35,NE,45,0.0,2.0,87,0.00,,,0.00,meteohub,2013-01-13 11:27:00,
2013-01-13 06:32:00,29.7,26.2,28.36,NE,45,1.0,2.0,87,0.00,,,0.00,meteohub,2013-01-13 11:32:00,
2013-01-13 06:37:00,29.7,26.2,28.37,West,270,0.0,2.0,87,0.00,,,0.00,meteohub,2013-01-13 11:37:00,
2013-01-13 06:42:00,29.7,26.2,28.35,South,180,2.0,2.0,87,0.00,,,0.00,meteohub,2013-01-13 11:42:00,
2013-01-13 06:47:00,29.7,26.2,28.35,South,180,2.0,3.0,87,0.00,,,0.00,meteohub,2013-01-13 11:47:00,
2013-01-13 06:52:00,29.8,26.4,28.35,East,90,4.0,4.0,87,0.00,,,0.00,meteohub,2013-01-13 11:52:00,
2013-01-13 06:57:00,29.7,26.2,28.35,SSE,158,1.0,4.0,87,0.00,,,0.00,meteohub,2013-01-13 11:57:00,
2013-01-13 07:02:00,29.5,26.1,28.34,SE,135,3.0,4.0,87,0.00,,,0.00,meteohub,2013-01-13 12:02:00,
2013-01-13 07:07:00,29.7,26.2,28.35,South,180,3.0,4.0,87,0.00,,,0.00,meteohub,2013-01-13 12:07:00,
2013-01-13 07:12:00,29.8,26.4,28.35,South,180,3.0,4.0,87,0.00,,,0.00,meteohub,2013-01-13 12:12:00,
2013-01-13 07:17:00,30.2,26.8,28.35,SW,225,3.0,4.0,87,0.00,,,0.00,meteohub,2013-01-13 12:17:00,
2013-01-13 07:22:00,30.2,26.8,28.34,East,90,2.0,4.0,87,0.00,,,0.00,meteohub,2013-01-13 12:22:00,
2013-01-13 07:27:00,30.2,26.6,28.34,South,180,4.0,4.0,86,0.00,,,0.00,meteohub,2013-01-13 12:27:00,
2013-01-13 07:32:00,30.0,26.6,28.34,NE,45,2.0,4.0,87,0.00,,,0.00,meteohub,2013-01-13 12:32:00,
2013-01-13 07:37:00,30.2,26.6,28.34,North,0,2.0,4.0,86,0.00,,,0.00,meteohub,2013-01-13 12:37:00,
2013-01-13 07:42:00,30.2,26.6,28.35,West,270,0.0,4.0,86,0.00,,,0.00,meteohub,2013-01-13 12:42:00,
2013-01-13 07:47:00,30.2,26.8,28.35,East,90,0.0,3.0,87,0.00,,,0.00,meteohub,2013-01-13 12:47:00,
2013-01-13 07:52:00,30.4,27.0,28.34,East,90,2.0,3.0,87,0.00,,,0.00,meteohub,2013-01-13 12:52:00,
2013-01-13 07:57:00,30.6,27.1,28.34,West,270,2.0,2.0,87,0.00,,,0.00,meteohub,2013-01-13 12:57:00,
2013-01-13 08:02:00,30.6,27.1,28.34,SW,225,2.0,2.0,87,0.00,,,0.00,meteohub,2013-01-13 13:02:00,
2013-01-13 08:07:00,30.6,27.1,28.34,South,180,1.0,2.0,87,0.00,,,0.00,meteohub,2013-01-13 13:07:00,
2013-01-13 08:12:00,30.7,27.3,28.34,ESE,113,3.0,3.0,87,0.00,,,0.00,meteohub,2013-01-13 13:12:00,
2013-01-13 08:17:00,31.1,27.7,28.34,East,90,2.0,4.0,87,0.00,,,0.00,meteohub,2013-01-13 13:17:00,
2013-01-13 08:22:00,31.3,27.9,28.34,SE,135,2.0,4.0,87,0.00,,,0.00,meteohub,2013-01-13 13:22:00,
2013-01-13 08:27:00,31.8,28.4,28.34,NW,315,2.0,4.0,87,0.00,,,0.00,meteohub,2013-01-13 13:27:00,
2013-01-13 08:32:00,32.0,28.2,28.34,North,0,2.0,4.0,86,0.00,,,0.00,meteohub,2013-01-13 13:32:00,
2013-01-13 08:37:00,32.2,28.8,28.34,South,180,2.0,4.0,87,0.00,,,0.00,meteohub,2013-01-13 13:37:00,
2013-01-13 08:42:00,32.5,29.1,28.34,South,180,2.0,4.0,87,0.00,,,0.00,meteohub,2013-01-13 13:42:00,
2013-01-13 08:47:00,32.7,29.3,28.34,East,90,2.0,3.0,87,0.00,,,0.00,meteohub,2013-01-13 13:47:00,
2013-01-13 08:52:00,32.9,29.5,28.33,NE,45,2.0,3.0,87,0.00,,,0.00,meteohub,2013-01-13 13:52:00,
2013-01-13 08:57:00,33.3,29.8,28.33,North,0,4.0,5.0,87,0.00,,,0.00,meteohub,2013-01-13 13:57:00,
2013-01-13 09:02:00,33.6,30.4,28.34,East,90,6.0,6.0,88,0.00,,,0.00,meteohub,2013-01-13 14:02:00,
2013-01-13 09:07:00,34.0,30.6,28.34,South,180,2.0,6.0,87,0.00,,,0.00,meteohub,2013-01-13 14:07:00,
2013-01-13 09:12:00,34.2,30.7,28.34,NE,45,2.0,6.0,87,0.00,,,0.00,meteohub,2013-01-13 14:12:00,
2013-01-13 09:17:00,35.2,32.0,28.34,NW,315,2.0,6.0,88,0.00,,,0.00,meteohub,2013-01-13 14:17:00,
2013-01-13 09:22:00,36.5,33.3,28.34,South,180,4.0,7.0,88,0.00,,,0.00,meteohub,2013-01-13 14:22:00,
2013-01-13 09:27:00,38.1,36.3,28.34,West,270,5.0,7.0,93,0.00,,,0.00,meteohub,2013-01-13 14:27:00,
2013-01-13 09:32:00,38.8,37.0,28.34,North,0,3.0,7.0,93,0.00,,,0.00,meteohub,2013-01-13 14:32:00,
2013-01-13 09:37:00,41.5,39.4,28.33,West,270,6.0,6.0,92,0.00,,,0.00,meteohub,2013-01-13 14:37:00,
2013-01-13 09:42:00,44.8,42.6,28.33,SE,135,4.0,6.0,92,0.00,,,0.00,meteohub,2013-01-13 14:42:00,
2013-01-13 09:47:00,48.7,46.6,28.33,North,0,4.0,6.0,92,0.00,,,0.00,meteohub,2013-01-13 14:47:00,
2013-01-13 09:52:00,52.2,49.6,28.33,SE,135,2.0,6.0,91,0.00,,,0.00,meteohub,2013-01-13 14:52:00,
2013-01-13 09:58:00,54.5,51.3,28.34,North,0,2.0,6.0,89,0.00,,,0.00,meteohub,2013-01-13 14:58:00,
2013-01-13 10:03:00,56.1,52.3,28.33,NW,315,3.0,6.0,87,0.00,,,0.00,meteohub,2013-01-13 15:03:00,
2013-01-13 10:08:00,57.7,52.0,28.34,East,90,4.0,6.0,81,0.00,,,0.00,meteohub,2013-01-13 15:08:00,
2013-01-13 10:13:00,58.6,49.3,28.34,West,270,2.0,6.0,71,0.00,,,0.00,meteohub,2013-01-13 15:13:00,
2013-01-13 10:18:00,58.3,47.3,28.33,SE,135,6.0,9.0,67,0.00,,,0.00,meteohub,2013-01-13 15:18:00,
2013-01-13 10:23:00,59.0,47.7,28.33,West,270,4.0,9.0,66,0.00,,,0.00,meteohub,2013-01-13 15:23:00,
2013-01-13 10:28:00,59.5,46.9,28.33,SE,135,6.0,9.0,63,0.00,,,0.00,meteohub,2013-01-13 15:28:00,
2013-01-13 10:34:00,60.3,48.0,28.33,West,270,4.0,8.0,64,0.00,,,0.00,meteohub,2013-01-13 15:34:00,
2013-01-13 10:39:00,60.3,47.1,28.33,SW,225,6.0,8.0,62,0.00,,,0.00,meteohub,2013-01-13 15:39:00,
2013-01-13 10:44:00,60.3,47.7,28.32,SW,225,7.0,11.0,63,0.00,,,0.00,meteohub,2013-01-13 15:44:00,
2013-01-13 10:49:00,60.4,47.3,28.32,West,270,8.0,11.0,62,0.00,,,0.00,meteohub,2013-01-13 15:49:00,
2013-01-13 10:54:00,60.6,47.5,28.32,East,90,4.0,11.0,62,0.00,,,0.00,meteohub,2013-01-13 15:54:00,
2013-01-13 10:59:00,60.3,46.8,28.32,South,180,3.0,9.0,61,0.00,,,0.00,meteohub,2013-01-13 15:59:00,
2013-01-13 11:04:00,59.9,46.8,28.32,North,0,3.0,8.0,62,0.00,,,0.00,meteohub,2013-01-13 16:04:00,
2013-01-13 11:09:00,60.3,47.7,28.31,SE,135,3.0,8.0,63,0.00,,,0.00,meteohub,2013-01-13 16:09:00,
2013-01-13 11:14:00,60.4,48.2,28.32,SE,135,7.0,7.0,64,0.00,,,0.00,meteohub,2013-01-13 16:14:00,
2013-01-13 11:19:00,61.0,48.4,28.32,SW,225,3.0,8.0,63,0.00,,,0.00,meteohub,2013-01-13 16:19:00,
2013-01-13 11:25:00,61.2,48.4,28.31,South,180,7.0,8.0,63,0.00,,,0.00,meteohub,2013-01-13 16:25:00,
2013-01-13 11:30:00,61.0,48.7,28.31,East,90,4.0,9.0,64,0.00,,,0.00,meteohub,2013-01-13 16:30:00,
2013-01-13 11:35:00,60.4,48.6,28.30,SE,135,5.0,9.0,65,0.00,,,0.00,meteohub,2013-01-13 16:35:00,
2013-01-13 11:40:00,59.9,48.0,28.30,SE,135,5.0,9.0,65,0.00,,,0.00,meteohub,2013-01-13 16:40:00,
2013-01-13 11:45:00,59.4,48.4,28.30,SE,135,2.0,8.0,67,0.00,,,0.00,meteohub,2013-01-13 16:45:00,
2013-01-13 11:50:00,59.2,48.2,28.31,East,90,8.0,8.0,67,0.00,,,0.00,meteohub,2013-01-13 16:50:00,
2013-01-13 11:55:00,59.4,48.4,28.30,East,90,5.0,14.0,67,0.00,,,0.00,meteohub,2013-01-13 16:55:00,
2013-01-13 12:00:00,59.5,48.6,28.29,SE,135,5.0,14.0,67,0.00,,,0.00,meteohub,2013-01-13 17:00:00,
2013-01-13 12:05:00,59.4,48.0,28.29,NW,315,3.0,14.0,66,0.00,,,0.00,meteohub,2013-01-13 17:05:00,
2013-01-13 12:10:00,59.2,48.2,28.29,NE,45,10.0,13.0,67,0.00,,,0.00,meteohub,2013-01-13 17:10:00,
2013-01-13 12:15:00,59.2,48.6,28.28,SE,135,4.0,13.0,68,0.00,,,0.00,meteohub,2013-01-13 17:15:00,
2013-01-13 12:20:00,59.0,48.9,28.29,South,180,9.0,13.0,69,0.00,,,0.00,meteohub,2013-01-13 17:20:00,
2013-01-13 12:25:00,59.2,49.5,28.28,SE,135,8.0,12.0,70,0.00,,,0.00,meteohub,2013-01-13 17:25:00,
2013-01-13 12:31:00,59.0,49.3,28.28,South,180,7.0,15.0,70,0.00,,,0.00,meteohub,2013-01-13 17:31:00,
2013-01-13 12:36:00,58.5,49.1,28.27,South,180,10.0,15.0,71,0.00,,,0.00,meteohub,2013-01-13 17:36:00,
2013-01-13 12:41:00,57.7,48.7,28.27,South,180,5.0,15.0,72,0.00,,,0.00,meteohub,2013-01-13 17:41:00,
2013-01-13 12:46:00,57.9,48.9,28.27,SSE,158,4.0,14.0,72,0.00,,,0.00,meteohub,2013-01-13 17:46:00,
2013-01-13 12:51:00,57.7,48.4,28.27,West,270,4.0,13.0,71,0.00,,,0.00,meteohub,2013-01-13 17:51:00,
2013-01-13 12:56:00,57.9,48.9,28.27,NW,315,4.0,13.0,72,0.00,,,0.00,meteohub,2013-01-13 17:56:00,
2013-01-13 13:01:00,57.9,48.9,28.27,South,180,5.0,10.0,72,0.00,,,0.00,meteohub,2013-01-13 18:01:00,
2013-01-13 13:06:00,58.6,49.3,28.27,South,180,3.0,10.0,71,0.00,,,0.00,meteohub,2013-01-13 18:06:00,
2013-01-13 13:11:00,58.5,49.1,28.27,North,0,5.0,10.0,71,0.00,,,0.00,meteohub,2013-01-13 18:11:00,
2013-01-13 13:16:00,58.8,49.5,28.27,ENE,68,7.0,11.0,71,0.00,,,0.00,meteohub,2013-01-13 18:16:00,
2013-01-13 13:22:00,58.5,48.4,28.26,SW,225,5.0,11.0,69,0.00,,,0.00,meteohub,2013-01-13 18:22:00,
2013-01-13 13:27:00,58.5,49.1,28.26,North,0,6.0,12.0,71,0.00,,,0.00,meteohub,2013-01-13 18:27:00,
2013-01-13 13:32:00,58.1,48.4,28.25,SW,225,4.0,12.0,70,0.00,,,0.00,meteohub,2013-01-13 18:32:00,
2013-01-13 13:37:00,57.7,48.4,28.25,NW,315,5.0,15.0,71,0.00,,,0.00,meteohub,2013-01-13 18:37:00,
2013-01-13 13:42:00,57.2,47.5,28.25,West,270,6.0,15.0,70,0.00,,,0.00,meteohub,2013-01-13 18:42:00,
2013-01-13 13:47:00,57.0,48.0,28.24,NW,315,6.0,15.0,72,0.00,,,0.00,meteohub,2013-01-13 18:47:00,
2013-01-13 13:52:00,56.8,47.8,28.23,SW,225,5.0,8.0,72,0.00,,,0.00,meteohub,2013-01-13 18:52:00,
2013-01-13 13:57:00,56.7,47.7,28.23,SW,225,5.0,6.0,72,0.00,,,0.00,meteohub,2013-01-13 18:57:00,
2013-01-13 14:02:00,56.7,47.3,28.24,North,0,5.0,6.0,71,0.00,,,0.00,meteohub,2013-01-13 19:02:00,
2013-01-13 14:07:00,56.7,47.3,28.24,West,270,4.0,6.0,71,0.00,,,0.00,meteohub,2013-01-13 19:07:00,
2013-01-13 14:12:00,56.8,47.5,28.24,West,270,4.0,6.0,71,0.00,,,0.00,meteohub,2013-01-13 19:12:00,
2013-01-13 14:17:00,56.8,47.1,28.24,NW,315,4.0,5.0,70,0.00,,,0.00,meteohub,2013-01-13 19:17:00,
2013-01-13 14:22:00,56.8,47.5,28.24,SW,225,4.0,5.0,71,0.00,,,0.00,meteohub,2013-01-13 19:22:00,
2013-01-13 14:27:00,57.0,47.3,28.25,SW,225,4.0,5.0,70,0.00,,,0.00,meteohub,2013-01-13 19:27:00,
2013-01-13 14:32:00,57.0,46.9,28.24,SW,225,4.0,5.0,69,0.00,,,0.00,meteohub,2013-01-13 19:32:00,
2013-01-13 14:37:00,57.2,46.8,28.24,West,270,4.0,5.0,68,0.00,,,0.00,meteohub,2013-01-13 19:37:00,
2013-01-13 14:42:00,57.4,46.9,28.24,West,270,2.0,7.0,68,0.00,,,0.00,meteohub,2013-01-13 19:42:00,
2013-01-13 14:47:00,57.4,46.9,28.23,SW,225,2.0,7.0,68,0.00,,,0.00,meteohub,2013-01-13 19:47:00,
2013-01-13 14:52:00,57.6,47.1,28.22,North,0,3.0,7.0,68,0.00,,,0.00,meteohub,2013-01-13 19:52:00,
2013-01-13 14:57:00,58.1,47.7,28.22,NW,315,2.0,5.0,68,0.00,,,0.00,meteohub,2013-01-13 19:57:00,
2013-01-13 15:02:00,58.1,46.8,28.23,West,270,5.0,6.0,66,0.00,,,0.00,meteohub,2013-01-13 20:02:00,
2013-01-13 15:07:00,58.8,47.5,28.22,NW,315,6.0,9.0,66,0.00,,,0.00,meteohub,2013-01-13 20:07:00,
2013-01-13 15:12:00,59.4,47.1,28.23,North,0,4.0,9.0,64,0.00,,,0.00,meteohub,2013-01-13 20:12:00,
2013-01-13 15:17:00,59.5,47.3,28.23,North,0,11.0,11.0,64,0.00,,,0.00,meteohub,2013-01-13 20:17:00,
2013-01-13 15:22:00,59.9,47.3,28.22,NE,45,4.0,11.0,63,0.00,,,0.00,meteohub,2013-01-13 20:22:00,
2013-01-13 15:27:00,59.7,47.1,28.22,West,270,2.0,11.0,63,0.00,,,0.00,meteohub,2013-01-13 20:27:00,
2013-01-13 15:32:00,59.2,46.6,28.22,NW,315,9.0,11.0,63,0.00,,,0.00,meteohub,2013-01-13 20:32:00,
2013-01-13 15:37:00,58.6,46.6,28.22,SW,225,2.0,9.0,64,0.00,,,0.00,meteohub,2013-01-13 20:37:00,
2013-01-13 15:42:00,58.8,47.5,28.22,NW,315,8.0,9.0,66,0.00,,,0.00,meteohub,2013-01-13 20:42:00,
2013-01-13 15:47:00,59.5,47.8,28.22,SE,135,6.0,9.0,65,0.00,,,0.00,meteohub,2013-01-13 20:47:00,
2013-01-13 15:52:00,59.4,46.4,28.22,South,180,4.0,8.0,62,0.00,,,0.00,meteohub,2013-01-13 20:52:00,
2013-01-13 15:57:00,57.6,45.9,28.22,South,180,6.0,8.0,65,0.00,,,0.00,meteohub,2013-01-13 20:57:00,
2013-01-13 16:02:00,56.1,45.0,28.22,South,180,4.0,8.0,66,0.00,,,0.00,meteohub,2013-01-13 21:02:00,
2013-01-13 16:07:00,55.4,45.0,28.23,SE,135,4.0,8.0,68,0.00,,,0.00,meteohub,2013-01-13 21:07:00,
2013-01-13 16:12:00,54.9,45.3,28.22,South,180,7.0,8.0,70,0.00,,,0.00,meteohub,2013-01-13 21:12:00,
2013-01-13 16:17:00,54.1,44.6,28.22,SW,225,8.0,8.0,70,0.00,,,0.00,meteohub,2013-01-13 21:17:00,
2013-01-13 16:22:00,54.0,44.8,28.22,East,90,4.0,8.0,71,0.00,,,0.00,meteohub,2013-01-13 21:22:00,
2013-01-13 16:27:00,53.2,44.4,28.23,East,90,7.0,8.0,72,0.00,,,0.00,meteohub,2013-01-13 21:27:00,
2013-01-13 16:32:00,52.9,44.4,28.23,East,90,6.0,8.0,73,0.00,,,0.00,meteohub,2013-01-13 21:32:00,
2013-01-13 16:37:00,52.5,44.4,28.22,NE,45,4.0,8.0,74,0.00,,,0.00,meteohub,2013-01-13 21:37:00,
2013-01-13 16:42:00,52.3,44.2,28.24,NE,45,4.0,8.0,74,0.00,,,0.00,meteohub,2013-01-13 21:42:00,
2013-01-13 16:47:00,52.3,44.6,28.24,SE,135,6.0,8.0,75,0.00,,,0.00,meteohub,2013-01-13 21:47:00,
2013-01-13 16:52:00,52.3,44.6,28.24,NE,45,3.0,10.0,75,0.00,,,0.00,meteohub,2013-01-13 21:52:00,
2013-01-13 16:57:00,54.0,46.9,28.24,SW,225,16.0,16.0,77,0.00,,,0.00,meteohub,2013-01-13 21:57:00,
2013-01-13 17:02:00,56.1,47.7,28.24,West,270,16.0,16.0,73,0.00,,,0.00,meteohub,2013-01-13 22:02:00,
2013-01-13 17:07:00,58.5,47.5,28.24,SE,135,6.0,16.0,67,0.00,,,0.00,meteohub,2013-01-13 22:07:00,
2013-01-13 17:12:00,58.5,46.8,28.23,South,180,4.0,16.0,65,0.00,,,0.00,meteohub,2013-01-13 22:12:00,
2013-01-13 17:17:00,58.5,46.4,28.25,West,270,7.0,16.0,64,0.00,,,0.00,meteohub,2013-01-13 22:17:00,
2013-01-13 17:22:00,58.5,47.1,28.25,NNW,338,6.0,12.0,66,0.00,,,0.00,meteohub,2013-01-13 22:22:00,
2013-01-13 17:27:00,57.7,45.3,28.25,West,270,3.0,12.0,63,0.00,,,0.00,meteohub,2013-01-13 22:27:00,
2013-01-13 17:32:00,56.5,44.8,28.24,NE,45,6.0,12.0,65,0.00,,,0.00,meteohub,2013-01-13 22:32:00,
2013-01-13 17:37:00,55.8,45.0,28.25,NE,45,3.0,9.0,67,0.00,,,0.00,meteohub,2013-01-13 22:37:00,
2013-01-13 17:42:00,55.4,44.2,28.25,SW,225,4.0,6.0,66,0.00,,,0.00,meteohub,2013-01-13 22:42:00,
2013-01-13 17:47:00,54.9,44.4,28.25,SW,225,4.0,6.0,68,0.00,,,0.00,meteohub,2013-01-13 22:47:00,
2013-01-13 17:52:00,53.8,42.6,28.25,NW,315,1.0,5.0,66,0.00,,,0.00,meteohub,2013-01-13 22:52:00,
2013-01-13 17:57:00,52.2,41.5,28.25,North,0,2.0,5.0,67,0.00,,,0.00,meteohub,2013-01-13 22:57:00,
2013-01-13 18:02:00,50.9,41.9,28.25,NW,315,2.0,5.0,71,0.00,,,0.00,meteohub,2013-01-13 23:02:00,
2013-01-13 18:07:00,50.4,41.7,28.25,West,270,4.0,6.0,72,0.00,,,0.00,meteohub,2013-01-13 23:07:00,
2013-01-13 18:12:00,50.2,42.3,28.24,SW,225,4.0,6.0,74,0.00,,,0.00,meteohub,2013-01-13 23:12:00,
2013-01-13 18:17:00,50.7,43.2,28.25,SW,225,2.0,7.0,75,0.00,,,0.00,meteohub,2013-01-13 23:17:00,
2013-01-13 18:22:00,50.5,42.6,28.26,SE,135,2.0,7.0,74,0.00,,,0.00,meteohub,2013-01-13 23:22:00,
2013-01-13 18:27:00,49.6,41.7,28.26,NW,315,4.0,7.0,74,0.00,,,0.00,meteohub,2013-01-13 23:27:00,
2013-01-13 18:32:00,49.3,41.7,28.27,NW,315,4.0,4.0,75,0.00,,,0.00,meteohub,2013-01-13 23:32:00,
2013-01-13 18:37:00,48.9,41.7,28.27,North,0,4.0,4.0,76,0.00,,,0.00,meteohub,2013-01-13 23:37:00,
2013-01-13 18:42:00,48.6,41.4,28.27,West,270,1.0,4.0,76,0.00,,,0.00,meteohub,2013-01-13 23:42:00,
2013-01-13 18:47:00,48.9,42.4,28.27,NW,315,3.0,4.0,78,0.00,,,0.00,meteohub,2013-01-13 23:47:00,
2013-01-13 18:52:00,48.0,41.5,28.27,North,0,2.0,4.0,78,0.00,,,0.00,meteohub,2013-01-13 23:52:00,
2013-01-13 18:57:00,47.3,40.8,28.27,NW,315,2.0,3.0,78,0.00,,,0.00,meteohub,2013-01-13 23:57:00,
2013-01-13 19:02:00,47.7,41.7,28.27,NW,315,3.0,3.0,80,0.00,,,0.00,meteohub,2013-01-14 00:02:00,
2013-01-13 19:07:00,47.5,41.5,28.27,NE,45,2.0,9.0,80,0.00,,,0.00,meteohub,2013-01-14 00:07:00,
2013-01-13 19:12:00,47.5,41.9,28.27,SW,225,4.0,9.0,81,0.00,,,0.00,meteohub,2013-01-14 00:12:00,
2013-01-13 19:17:00,47.3,41.7,28.27,SW,225,2.0,9.0,81,0.00,,,0.00,meteohub,2013-01-14 00:17:00,
2013-01-13 19:22:00,48.4,42.8,28.27,NE,45,2.0,9.0,81,0.00,,,0.00,meteohub,2013-01-14 00:22:00,
2013-01-13 19:27:00,48.0,42.8,28.27,West,270,4.0,4.0,82,0.00,,,0.00,meteohub,2013-01-14 00:27:00,
2013-01-13 19:32:00,47.5,41.9,28.27,North,0,2.0,4.0,81,0.00,,,0.00,meteohub,2013-01-14 00:32:00,
2013-01-13 19:37:00,46.8,41.0,28.27,West,270,2.0,4.0,80,0.00,,,0.00,meteohub,2013-01-14 00:37:00,
2013-01-13 19:42:00,46.2,40.5,28.27,NE,45,1.0,4.0,80,0.00,,,0.00,meteohub,2013-01-14 00:42:00,
2013-01-13 19:47:00,46.0,40.3,28.26,West,270,2.0,3.0,80,0.00,,,0.00,meteohub,2013-01-14 00:47:00,
2013-01-13 19:52:00,45.7,39.9,28.27,NW,315,2.0,3.0,80,0.00,,,0.00,meteohub,2013-01-14 00:52:00,
2013-01-13 19:57:00,45.1,39.4,28.27,SW,225,2.0,4.0,80,0.00,,,0.00,meteohub,2013-01-14 00:57:00,
2013-01-13 20:02:00,44.8,39.0,28.26,West,270,2.0,4.0,80,0.00,,,0.00,meteohub,2013-01-14 01:02:00,
2013-01-13 20:07:00,44.6,38.8,28.26,NE,45,2.0,4.0,80,0.00,,,0.00,meteohub,2013-01-14 01:07:00,
2013-01-13 20:12:00,43.9,38.5,28.26,South,180,2.0,3.0,81,0.00,,,0.00,meteohub,2013-01-14 01:12:00,
2013-01-13 20:17:00,43.2,37.8,28.26,NE,45,0.0,2.0,81,0.00,,,0.00,meteohub,2013-01-14 01:17:00,
2013-01-13 20:22:00,42.6,37.6,28.27,North,0,0.0,2.0,82,0.00,,,0.00,meteohub,2013-01-14 01:22:00,
2013-01-13 20:27:00,42.4,37.4,28.26,East,90,3.0,3.0,82,0.00,,,0.00,meteohub,2013-01-14 01:27:00,
2013-01-13 20:32:00,41.9,36.9,28.26,SE,135,0.0,3.0,82,0.00,,,0.00,meteohub,2013-01-14 01:32:00,
2013-01-13 20:37:00,41.7,36.9,28.26,SE,135,0.0,3.0,83,0.00,,,0.00,meteohub,2013-01-14 01:37:00,
2013-01-13 20:42:00,41.5,36.7,28.26,SE,135,3.0,3.0,83,0.00,,,0.00,meteohub,2013-01-14 01:42:00,
2013-01-13 20:47:00,41.5,36.7,28.25,East,90,1.0,3.0,83,0.00,,,0.00,meteohub,2013-01-14 01:47:00,
2013-01-13 20:52:00,41.2,36.5,28.25,SE,135,2.0,3.0,83,0.00,,,0.00,meteohub,2013-01-14 01:52:00,
2013-01-13 20:57:00,40.6,36.1,28.25,South,180,2.0,3.0,84,0.00,,,0.00,meteohub,2013-01-14 01:57:00,
2013-01-13 21:02:00,40.5,36.0,28.25,NE,45,2.0,3.0,84,0.00,,,0.00,meteohub,2013-01-14 02:02:00,
2013-01-13 21:07:00,40.1,35.6,28.25,East,90,0.0,3.0,84,0.00,,,0.00,meteohub,2013-01-14 02:07:00,
2013-01-13 21:12:00,39.7,35.2,28.25,SE,135,0.0,2.0,84,0.00,,,0.00,meteohub,2013-01-14 02:12:00,
2013-01-13 21:17:00,39.4,34.9,28.25,South,180,2.0,2.0,84,0.00,,,0.00,meteohub,2013-01-14 02:17:00,
2013-01-13 21:22:00,39.2,34.7,28.25,SE,135,2.0,2.0,84,0.00,,,0.00,meteohub,2013-01-14 02:22:00,
2013-01-13 21:27:00,39.2,34.7,28.25,SE,135,2.0,2.0,84,0.00,,,0.00,meteohub,2013-01-14 02:27:00,
2013-01-13 21:32:00,39.2,35.1,28.25,SE,135,2.0,3.0,85,0.00,,,0.00,meteohub,2013-01-14 02:32:00,
2013-01-13 21:37:00,38.8,35.1,28.25,SE,135,2.0,3.0,86,0.00,,,0.00,meteohub,2013-01-14 02:37:00,
2013-01-13 21:42:00,38.7,34.9,28.25,East,90,2.0,4.0,86,0.00,,,0.00,meteohub,2013-01-14 02:42:00,
2013-01-13 21:47:00,38.3,34.5,28.25,West,270,3.0,4.0,86,0.00,,,0.00,meteohub,2013-01-14 02:47:00,
2013-01-13 21:52:00,38.3,34.5,28.25,SW,225,4.0,4.0,86,0.00,,,0.00,meteohub,2013-01-14 02:52:00,
2013-01-13 21:57:00,38.5,34.9,28.24,SE,135,2.0,4.0,87,0.00,,,0.00,meteohub,2013-01-14 02:57:00,
2013-01-13 22:02:00,38.3,34.7,28.24,South,180,2.0,4.0,87,0.00,,,0.00,meteohub,2013-01-14 03:02:00,
2013-01-13 22:07:00,38.1,34.9,28.24,East,90,2.0,4.0,88,0.00,,,0.00,meteohub,2013-01-14 03:07:00,
2013-01-13 22:12:00,38.1,34.9,28.24,East,90,3.0,4.0,88,0.00,,,0.00,meteohub,2013-01-14 03:12:00,
2013-01-13 22:17:00,38.1,34.9,28.25,NW,315,2.0,4.0,88,0.00,,,0.00,meteohub,2013-01-14 03:17:00,
2013-01-13 22:22:00,38.1,34.9,28.25,SW,225,3.0,4.0,88,0.00,,,0.00,meteohub,2013-01-14 03:22:00,
2013-01-13 22:27:00,38.1,35.2,28.24,SE,135,3.0,4.0,89,0.00,,,0.00,meteohub,2013-01-14 03:27:00,
2013-01-13 22:32:00,38.3,35.4,28.24,SE,135,4.0,4.0,89,0.00,,,0.00,meteohub,2013-01-14 03:32:00,
2013-01-13 22:37:00,38.3,35.4,28.25,SE,135,2.0,4.0,89,0.00,,,0.00,meteohub,2013-01-14 03:37:00,
2013-01-13 22:42:00,38.3,35.4,28.24,SE,135,4.0,4.0,89,0.00,,,0.00,meteohub,2013-01-14 03:42:00,
2013-01-13 22:47:00,38.5,35.8,28.24,NE,45,2.0,4.0,90,0.00,,,0.00,meteohub,2013-01-14 03:47:00,
2013-01-13 22:52:00,38.1,35.4,28.25,South,180,2.0,4.0,90,0.00,,,0.00,meteohub,2013-01-14 03:52:00,
2013-01-13 22:57:00,37.9,35.2,28.24,NW,315,2.0,5.0,90,0.00,,,0.00,meteohub,2013-01-14 03:57:00,
2013-01-13 23:02:00,37.8,35.1,28.24,NW,315,2.0,5.0,90,0.00,,,0.00,meteohub,2013-01-14 04:02:00,
2013-01-13 23:07:00,37.9,35.2,28.24,NW,315,4.0,5.0,90,0.00,,,0.00,meteohub,2013-01-14 04:07:00,
2013-01-13 23:12:00,38.1,35.4,28.23,NW,315,4.0,5.0,90,0.00,,,0.00,meteohub,2013-01-14 04:12:00,
2013-01-13 23:17:00,38.1,35.4,28.23,SW,225,2.0,6.0,90,0.00,,,0.00,meteohub,2013-01-14 04:17:00,
2013-01-13 23:22:00,38.1,35.4,28.23,NW,315,2.0,6.0,90,0.00,,,0.00,meteohub,2013-01-14 04:22:00,
2013-01-13 23:27:00,38.1,35.4,28.23,SW,225,1.0,6.0,90,0.00,,,0.00,meteohub,2013-01-14 04:27:00,
2013-01-13 23:32:00,38.1,35.4,28.23,SW,225,3.0,4.0,90,0.00,,,0.00,meteohub,2013-01-14 04:32:00,
2013-01-13 23:37:00,37.9,35.2,28.23,South,180,2.0,4.0,90,0.00,,,0.00,meteohub,2013-01-14 04:37:00,
2013-01-13 23:42:00,38.3,36.0,28.22,SE,135,4.0,4.0,91,0.00,,,0.00,meteohub,2013-01-14 04:42:00,
2013-01-13 23:47:00,38.1,35.8,28.23,North,0,2.0,4.0,91,0.00,,,0.00,meteohub,2013-01-14 04:47:00,
2013-01-13 23:52:00,38.3,36.0,28.22,SW,225,2.0,4.0,91,0.00,,,0.00,meteohub,2013-01-14 04:52:00,
2013-01-13 23:57:00,38.3,36.0,28.22,SW,225,3.0,4.0,91,0.00,,,0.00,meteohub,2013-01-14 04:57:00,